sensor_id;sensor_type;location;lat;lon;timestamp;P1;durP1;ratioP1;P2;durP2;ratioP2
2434;SDS011;1228;51.022;6.764;2023-07-30T00:01:30;5.87;;;5.07;;
2434;SDS011;1228;51.022;6.764;2023-07-30T00:03:56;5.50;;;5.00;;
2434;SDS011;1228;51.022;6.764;2023-07-30T00:06:21;7.30;;;4.90;;
2434;SDS011;1228;51.022;6.764;2023-07-30T00:08:47;6.47;;;5.03;;
2434;SDS011;1228;51.022;6.764;2023-07-30T00:11:13;6.50;;;5.13;;
2434;SDS011;1228;51.022;6.764;2023-07-30T00:13:38;9.33;;;5.73;;
2434;SDS011;1228;51.022;6.764;2023-07-30T00:16:04;7.63;;;5.07;;
2434;SDS011;1228;51.022;6.764;2023-07-30T00:18:29;12.60;;;5.60;;
2434;SDS011;1228;51.022;6.764;2023-07-30T00:20:55;11.73;;;5.73;;
2434;SDS011;1228;51.022;6.764;2023-07-30T00:23:21;7.90;;;5.50;;
2434;SDS011;1228;51.022;6.764;2023-07-30T00:25:46;11.53;;;4.90;;
2434;SDS011;1228;51.022;6.764;2023-07-30T00:28:12;12.00;;;5.70;;
2434;SDS011;1228;51.022;6.764;2023-07-30T00:30:37;6.67;;;4.80;;
2434;SDS011;1228;51.022;6.764;2023-07-30T00:33:03;5.17;;;4.60;;
2434;SDS011;1228;51.022;6.764;2023-07-30T00:35:29;6.47;;;5.73;;
2434;SDS011;1228;51.022;6.764;2023-07-30T00:37:54;5.20;;;4.73;;
2434;SDS011;1228;51.022;6.764;2023-07-30T00:40:20;5.27;;;4.77;;
2434;SDS011;1228;51.022;6.764;2023-07-30T00:42:45;5.53;;;4.97;;
2434;SDS011;1228;51.022;6.764;2023-07-30T00:45:11;4.97;;;4.57;;
2434;SDS011;1228;51.022;6.764;2023-07-30T00:47:37;6.77;;;5.27;;
2434;SDS011;1228;51.022;6.764;2023-07-30T00:50:04;6.10;;;5.50;;
2434;SDS011;1228;51.022;6.764;2023-07-30T00:52:30;8.23;;;5.13;;
2434;SDS011;1228;51.022;6.764;2023-07-30T00:54:57;6.60;;;4.90;;
2434;SDS011;1228;51.022;6.764;2023-07-30T00:57:26;9.43;;;5.20;;
2434;SDS011;1228;51.022;6.764;2023-07-30T00:59:51;9.00;;;4.97;;
2434;SDS011;1228;51.022;6.764;2023-07-30T01:02:18;8.70;;;5.27;;
2434;SDS011;1228;51.022;6.764;2023-07-30T01:04:43;5.27;;;4.80;;
2434;SDS011;1228;51.022;6.764;2023-07-30T01:07:09;8.93;;;5.20;;
2434;SDS011;1228;51.022;6.764;2023-07-30T01:09:35;5.83;;;5.20;;
2434;SDS011;1228;51.022;6.764;2023-07-30T01:12:01;8.73;;;5.10;;
2434;SDS011;1228;51.022;6.764;2023-07-30T01:14:28;8.33;;;5.30;;
2434;SDS011;1228;51.022;6.764;2023-07-30T01:16:54;8.43;;;4.70;;
2434;SDS011;1228;51.022;6.764;2023-07-30T01:19:20;7.70;;;5.20;;
2434;SDS011;1228;51.022;6.764;2023-07-30T01:21:46;5.70;;;4.83;;
2434;SDS011;1228;51.022;6.764;2023-07-30T01:26:45;6.37;;;5.10;;
2434;SDS011;1228;51.022;6.764;2023-07-30T01:29:25;6.97;;;5.27;;
2434;SDS011;1228;51.022;6.764;2023-07-30T01:31:58;6.43;;;5.00;;
2434;SDS011;1228;51.022;6.764;2023-07-30T01:34:29;5.97;;;5.17;;
2434;SDS011;1228;51.022;6.764;2023-07-30T01:36:58;7.80;;;5.50;;
2434;SDS011;1228;51.022;6.764;2023-07-30T01:39:24;8.97;;;4.80;;
2434;SDS011;1228;51.022;6.764;2023-07-30T01:41:53;8.30;;;5.10;;
2434;SDS011;1228;51.022;6.764;2023-07-30T01:44:19;5.30;;;4.80;;
2434;SDS011;1228;51.022;6.764;2023-07-30T01:46:45;5.30;;;4.80;;
2434;SDS011;1228;51.022;6.764;2023-07-30T01:49:10;8.77;;;5.70;;
2434;SDS011;1228;51.022;6.764;2023-07-30T01:51:36;11.00;;;4.73;;
2434;SDS011;1228;51.022;6.764;2023-07-30T01:54:01;5.63;;;5.13;;
2434;SDS011;1228;51.022;6.764;2023-07-30T01:56:27;7.23;;;4.77;;
2434;SDS011;1228;51.022;6.764;2023-07-30T01:58:53;5.20;;;4.77;;
2434;SDS011;1228;51.022;6.764;2023-07-30T02:01:18;4.83;;;4.33;;
2434;SDS011;1228;51.022;6.764;2023-07-30T02:03:44;5.33;;;4.60;;
2434;SDS011;1228;51.022;6.764;2023-07-30T02:06:09;6.07;;;5.40;;
2434;SDS011;1228;51.022;6.764;2023-07-30T02:08:36;10.73;;;4.93;;
2434;SDS011;1228;51.022;6.764;2023-07-30T02:11:01;5.37;;;4.87;;
2434;SDS011;1228;51.022;6.764;2023-07-30T02:13:27;6.67;;;4.70;;
2434;SDS011;1228;51.022;6.764;2023-07-30T02:15:53;5.23;;;4.13;;
2434;SDS011;1228;51.022;6.764;2023-07-30T02:18:18;11.83;;;4.80;;
2434;SDS011;1228;51.022;6.764;2023-07-30T02:20:44;4.53;;;4.13;;
2434;SDS011;1228;51.022;6.764;2023-07-30T02:23:10;5.10;;;4.17;;
2434;SDS011;1228;51.022;6.764;2023-07-30T02:25:35;4.87;;;4.23;;
2434;SDS011;1228;51.022;6.764;2023-07-30T02:28:03;4.77;;;4.33;;
2434;SDS011;1228;51.022;6.764;2023-07-30T02:30:28;5.40;;;4.70;;
2434;SDS011;1228;51.022;6.764;2023-07-30T02:32:54;8.03;;;4.53;;
2434;SDS011;1228;51.022;6.764;2023-07-30T02:35:20;4.50;;;4.10;;
2434;SDS011;1228;51.022;6.764;2023-07-30T02:37:45;5.03;;;4.07;;
2434;SDS011;1228;51.022;6.764;2023-07-30T02:40:11;7.97;;;4.43;;
2434;SDS011;1228;51.022;6.764;2023-07-30T02:42:37;4.73;;;4.33;;
2434;SDS011;1228;51.022;6.764;2023-07-30T02:45:03;6.20;;;4.20;;
2434;SDS011;1228;51.022;6.764;2023-07-30T02:47:30;4.47;;;4.07;;
2434;SDS011;1228;51.022;6.764;2023-07-30T02:49:55;7.43;;;3.93;;
2434;SDS011;1228;51.022;6.764;2023-07-30T02:52:21;8.43;;;4.23;;
2434;SDS011;1228;51.022;6.764;2023-07-30T02:54:46;9.27;;;3.97;;
2434;SDS011;1228;51.022;6.764;2023-07-30T02:57:12;4.43;;;4.03;;
2434;SDS011;1228;51.022;6.764;2023-07-30T02:59:38;5.87;;;4.60;;
2434;SDS011;1228;51.022;6.764;2023-07-30T03:02:05;8.13;;;3.80;;
2434;SDS011;1228;51.022;6.764;2023-07-30T03:04:31;4.87;;;3.73;;
2434;SDS011;1228;51.022;6.764;2023-07-30T03:06:57;4.17;;;3.77;;
2434;SDS011;1228;51.022;6.764;2023-07-30T03:09:22;4.80;;;4.10;;
2434;SDS011;1228;51.022;6.764;2023-07-30T03:11:54;3.90;;;3.60;;
2434;SDS011;1228;51.022;6.764;2023-07-30T03:14:20;5.33;;;4.23;;
2434;SDS011;1228;51.022;6.764;2023-07-30T03:16:46;6.17;;;3.87;;
2434;SDS011;1228;51.022;6.764;2023-07-30T03:19:12;8.60;;;4.17;;
2434;SDS011;1228;51.022;6.764;2023-07-30T03:21:38;8.67;;;5.50;;
2434;SDS011;1228;51.022;6.764;2023-07-30T03:24:04;4.70;;;4.23;;
2434;SDS011;1228;51.022;6.764;2023-07-30T03:26:29;5.40;;;4.07;;
2434;SDS011;1228;51.022;6.764;2023-07-30T03:28:55;4.83;;;3.90;;
2434;SDS011;1228;51.022;6.764;2023-07-30T03:31:21;7.37;;;4.20;;
2434;SDS011;1228;51.022;6.764;2023-07-30T03:33:46;4.40;;;3.60;;
2434;SDS011;1228;51.022;6.764;2023-07-30T03:36:12;6.57;;;3.53;;
2434;SDS011;1228;51.022;6.764;2023-07-30T03:38:38;4.73;;;3.63;;
2434;SDS011;1228;51.022;6.764;2023-07-30T03:41:05;4.20;;;3.73;;
2434;SDS011;1228;51.022;6.764;2023-07-30T03:43:31;5.00;;;3.37;;
2434;SDS011;1228;51.022;6.764;2023-07-30T03:45:59;4.40;;;3.40;;
2434;SDS011;1228;51.022;6.764;2023-07-30T03:48:25;3.70;;;2.83;;
2434;SDS011;1228;51.022;6.764;2023-07-30T03:50:52;6.33;;;3.63;;
2434;SDS011;1228;51.022;6.764;2023-07-30T03:53:18;5.10;;;3.50;;
2434;SDS011;1228;51.022;6.764;2023-07-30T03:55:44;4.53;;;3.23;;
2434;SDS011;1228;51.022;6.764;2023-07-30T03:58:09;5.97;;;3.40;;
2434;SDS011;1228;51.022;6.764;2023-07-30T04:00:35;5.63;;;3.13;;
2434;SDS011;1228;51.022;6.764;2023-07-30T04:03:00;5.03;;;3.40;;
2434;SDS011;1228;51.022;6.764;2023-07-30T04:05:26;4.60;;;2.90;;
2434;SDS011;1228;51.022;6.764;2023-07-30T04:07:52;4.70;;;3.50;;
2434;SDS011;1228;51.022;6.764;2023-07-30T04:10:17;3.13;;;2.93;;
2434;SDS011;1228;51.022;6.764;2023-07-30T04:12:43;4.63;;;3.00;;
2434;SDS011;1228;51.022;6.764;2023-07-30T04:15:09;3.43;;;3.00;;
2434;SDS011;1228;51.022;6.764;2023-07-30T04:17:36;3.80;;;3.47;;
2434;SDS011;1228;51.022;6.764;2023-07-30T04:20:02;5.63;;;3.93;;
2434;SDS011;1228;51.022;6.764;2023-07-30T04:22:29;5.30;;;3.57;;
2434;SDS011;1228;51.022;6.764;2023-07-30T04:24:55;6.73;;;3.53;;
2434;SDS011;1228;51.022;6.764;2023-07-30T04:27:20;3.33;;;3.10;;
2434;SDS011;1228;51.022;6.764;2023-07-30T04:29:46;4.53;;;3.63;;
2434;SDS011;1228;51.022;6.764;2023-07-30T04:32:11;4.13;;;3.00;;
2434;SDS011;1228;51.022;6.764;2023-07-30T04:34:37;3.20;;;2.90;;
2434;SDS011;1228;51.022;6.764;2023-07-30T04:37:03;3.40;;;3.10;;
2434;SDS011;1228;51.022;6.764;2023-07-30T04:39:29;6.10;;;3.47;;
2434;SDS011;1228;51.022;6.764;2023-07-30T04:41:57;8.43;;;3.27;;
2434;SDS011;1228;51.022;6.764;2023-07-30T04:44:22;4.47;;;3.20;;
2434;SDS011;1228;51.022;6.764;2023-07-30T04:46:48;5.93;;;3.00;;
2434;SDS011;1228;51.022;6.764;2023-07-30T04:49:14;3.53;;;2.97;;
2434;SDS011;1228;51.022;6.764;2023-07-30T04:51:39;4.70;;;3.47;;
2434;SDS011;1228;51.022;6.764;2023-07-30T04:54:05;5.17;;;3.27;;
2434;SDS011;1228;51.022;6.764;2023-07-30T04:56:31;3.57;;;3.00;;
2434;SDS011;1228;51.022;6.764;2023-07-30T04:58:56;5.27;;;2.87;;
2434;SDS011;1228;51.022;6.764;2023-07-30T05:01:23;3.70;;;3.17;;
2434;SDS011;1228;51.022;6.764;2023-07-30T05:03:49;6.37;;;3.60;;
2434;SDS011;1228;51.022;6.764;2023-07-30T05:06:14;5.13;;;3.33;;
2434;SDS011;1228;51.022;6.764;2023-07-30T05:08:40;5.10;;;3.00;;
2434;SDS011;1228;51.022;6.764;2023-07-30T05:11:06;5.53;;;3.27;;
2434;SDS011;1228;51.022;6.764;2023-07-30T05:13:31;3.20;;;2.90;;
2434;SDS011;1228;51.022;6.764;2023-07-30T05:15:57;3.40;;;2.90;;
2434;SDS011;1228;51.022;6.764;2023-07-30T05:18:22;5.70;;;3.13;;
2434;SDS011;1228;51.022;6.764;2023-07-30T05:20:48;3.37;;;2.90;;
2434;SDS011;1228;51.022;6.764;2023-07-30T05:23:14;4.37;;;3.10;;
2434;SDS011;1228;51.022;6.764;2023-07-30T05:25:40;3.90;;;3.30;;
2434;SDS011;1228;51.022;6.764;2023-07-30T05:28:05;3.53;;;2.87;;
2434;SDS011;1228;51.022;6.764;2023-07-30T05:30:31;4.83;;;2.93;;
2434;SDS011;1228;51.022;6.764;2023-07-30T05:32:57;3.60;;;3.10;;
2434;SDS011;1228;51.022;6.764;2023-07-30T05:35:22;5.13;;;3.07;;
2434;SDS011;1228;51.022;6.764;2023-07-30T05:37:48;3.10;;;2.80;;
2434;SDS011;1228;51.022;6.764;2023-07-30T05:40:13;3.93;;;2.90;;
2434;SDS011;1228;51.022;6.764;2023-07-30T05:42:39;4.23;;;2.80;;
2434;SDS011;1228;51.022;6.764;2023-07-30T05:45:05;7.40;;;3.27;;
2434;SDS011;1228;51.022;6.764;2023-07-30T05:47:31;6.33;;;3.10;;
2434;SDS011;1228;51.022;6.764;2023-07-30T05:49:56;3.13;;;2.83;;
2434;SDS011;1228;51.022;6.764;2023-07-30T05:52:22;4.77;;;3.00;;
2434;SDS011;1228;51.022;6.764;2023-07-30T05:54:48;4.03;;;3.50;;
2434;SDS011;1228;51.022;6.764;2023-07-30T05:57:14;3.70;;;3.10;;
2434;SDS011;1228;51.022;6.764;2023-07-30T05:59:39;4.20;;;3.40;;
2434;SDS011;1228;51.022;6.764;2023-07-30T06:02:05;6.93;;;2.70;;
2434;SDS011;1228;51.022;6.764;2023-07-30T06:04:31;4.10;;;2.97;;
2434;SDS011;1228;51.022;6.764;2023-07-30T06:06:58;4.33;;;2.80;;
2434;SDS011;1228;51.022;6.764;2023-07-30T06:09:27;3.57;;;3.07;;
2434;SDS011;1228;51.022;6.764;2023-07-30T06:11:54;3.13;;;2.83;;
2434;SDS011;1228;51.022;6.764;2023-07-30T06:14:21;3.60;;;2.80;;
2434;SDS011;1228;51.022;6.764;2023-07-30T06:16:47;5.80;;;3.00;;
2434;SDS011;1228;51.022;6.764;2023-07-30T06:19:12;3.43;;;3.13;;
2434;SDS011;1228;51.022;6.764;2023-07-30T06:21:38;5.33;;;2.90;;
2434;SDS011;1228;51.022;6.764;2023-07-30T06:24:04;2.90;;;2.70;;
2434;SDS011;1228;51.022;6.764;2023-07-30T06:26:29;4.77;;;2.70;;
2434;SDS011;1228;51.022;6.764;2023-07-30T06:28:55;4.67;;;3.40;;
2434;SDS011;1228;51.022;6.764;2023-07-30T06:31:20;3.77;;;2.70;;
2434;SDS011;1228;51.022;6.764;2023-07-30T06:33:46;4.03;;;2.57;;
2434;SDS011;1228;51.022;6.764;2023-07-30T06:36:12;3.43;;;3.00;;
2434;SDS011;1228;51.022;6.764;2023-07-30T06:38:37;4.13;;;3.20;;
2434;SDS011;1228;51.022;6.764;2023-07-30T06:41:03;5.70;;;2.90;;
2434;SDS011;1228;51.022;6.764;2023-07-30T06:43:29;4.87;;;2.87;;
2434;SDS011;1228;51.022;6.764;2023-07-30T06:45:55;3.17;;;2.87;;
2434;SDS011;1228;51.022;6.764;2023-07-30T06:48:21;3.80;;;2.93;;
2434;SDS011;1228;51.022;6.764;2023-07-30T06:50:46;7.23;;;3.47;;
2434;SDS011;1228;51.022;6.764;2023-07-30T06:53:12;5.03;;;3.17;;
2434;SDS011;1228;51.022;6.764;2023-07-30T06:55:37;4.53;;;3.10;;
2434;SDS011;1228;51.022;6.764;2023-07-30T06:58:03;7.70;;;3.67;;
2434;SDS011;1228;51.022;6.764;2023-07-30T07:00:29;9.27;;;4.37;;
2434;SDS011;1228;51.022;6.764;2023-07-30T07:02:54;9.93;;;3.03;;
2434;SDS011;1228;51.022;6.764;2023-07-30T07:05:20;6.67;;;2.97;;
2434;SDS011;1228;51.022;6.764;2023-07-30T07:07:45;4.90;;;3.00;;
2434;SDS011;1228;51.022;6.764;2023-07-30T07:10:11;4.37;;;3.10;;
2434;SDS011;1228;51.022;6.764;2023-07-30T07:12:38;8.30;;;3.40;;
2434;SDS011;1228;51.022;6.764;2023-07-30T07:15:04;7.33;;;3.50;;
2434;SDS011;1228;51.022;6.764;2023-07-30T07:17:30;5.70;;;3.03;;
2434;SDS011;1228;51.022;6.764;2023-07-30T07:19:56;3.63;;;2.90;;
2434;SDS011;1228;51.022;6.764;2023-07-30T07:22:22;6.17;;;3.90;;
2434;SDS011;1228;51.022;6.764;2023-07-30T07:24:48;7.00;;;3.13;;
2434;SDS011;1228;51.022;6.764;2023-07-30T07:27:14;5.90;;;3.23;;
2434;SDS011;1228;51.022;6.764;2023-07-30T07:29:39;3.57;;;2.87;;
2434;SDS011;1228;51.022;6.764;2023-07-30T07:32:05;3.70;;;3.17;;
2434;SDS011;1228;51.022;6.764;2023-07-30T07:34:31;6.43;;;3.07;;
2434;SDS011;1228;51.022;6.764;2023-07-30T07:36:57;5.73;;;2.90;;
2434;SDS011;1228;51.022;6.764;2023-07-30T07:39:23;6.23;;;3.03;;
2434;SDS011;1228;51.022;6.764;2023-07-30T07:41:48;4.50;;;3.27;;
2434;SDS011;1228;51.022;6.764;2023-07-30T07:44:14;4.40;;;2.87;;
2434;SDS011;1228;51.022;6.764;2023-07-30T07:46:40;5.77;;;2.93;;
2434;SDS011;1228;51.022;6.764;2023-07-30T07:49:06;4.03;;;2.83;;
2434;SDS011;1228;51.022;6.764;2023-07-30T07:51:33;3.60;;;2.90;;
2434;SDS011;1228;51.022;6.764;2023-07-30T07:53:59;6.47;;;2.87;;
2434;SDS011;1228;51.022;6.764;2023-07-30T07:56:25;7.07;;;3.27;;
2434;SDS011;1228;51.022;6.764;2023-07-30T07:58:50;16.77;;;3.93;;
2434;SDS011;1228;51.022;6.764;2023-07-30T08:01:16;6.67;;;3.13;;
2434;SDS011;1228;51.022;6.764;2023-07-30T08:03:41;6.03;;;3.23;;
2434;SDS011;1228;51.022;6.764;2023-07-30T08:06:07;4.40;;;3.00;;
2434;SDS011;1228;51.022;6.764;2023-07-30T08:08:33;4.17;;;3.00;;
2434;SDS011;1228;51.022;6.764;2023-07-30T08:10:58;6.63;;;3.10;;
2434;SDS011;1228;51.022;6.764;2023-07-30T08:13:33;4.57;;;3.33;;
2434;SDS011;1228;51.022;6.764;2023-07-30T08:15:59;14.63;;;4.60;;
2434;SDS011;1228;51.022;6.764;2023-07-30T08:18:25;7.67;;;3.80;;
2434;SDS011;1228;51.022;6.764;2023-07-30T08:20:51;4.77;;;3.70;;
2434;SDS011;1228;51.022;6.764;2023-07-30T08:23:17;7.43;;;4.07;;
2434;SDS011;1228;51.022;6.764;2023-07-30T08:25:42;5.97;;;3.37;;
2434;SDS011;1228;51.022;6.764;2023-07-30T08:28:08;10.80;;;3.20;;
2434;SDS011;1228;51.022;6.764;2023-07-30T08:30:33;11.47;;;3.40;;
2434;SDS011;1228;51.022;6.764;2023-07-30T08:32:59;8.97;;;3.87;;
2434;SDS011;1228;51.022;6.764;2023-07-30T08:35:24;8.30;;;4.17;;
2434;SDS011;1228;51.022;6.764;2023-07-30T08:37:52;6.40;;;3.47;;
2434;SDS011;1228;51.022;6.764;2023-07-30T08:40:20;5.80;;;3.30;;
2434;SDS011;1228;51.022;6.764;2023-07-30T08:42:48;5.43;;;3.63;;
2434;SDS011;1228;51.022;6.764;2023-07-30T08:45:16;7.70;;;3.80;;
2434;SDS011;1228;51.022;6.764;2023-07-30T08:47:42;9.17;;;3.73;;
2434;SDS011;1228;51.022;6.764;2023-07-30T08:50:09;7.33;;;3.50;;
2434;SDS011;1228;51.022;6.764;2023-07-30T08:52:35;8.27;;;3.87;;
2434;SDS011;1228;51.022;6.764;2023-07-30T08:55:03;5.33;;;3.00;;
2434;SDS011;1228;51.022;6.764;2023-07-30T08:57:30;9.20;;;3.87;;
2434;SDS011;1228;51.022;6.764;2023-07-30T09:00:03;6.90;;;4.30;;
2434;SDS011;1228;51.022;6.764;2023-07-30T09:02:48;8.15;;;4.53;;
2434;SDS011;1228;51.022;6.764;2023-07-30T09:05:16;6.53;;;3.10;;
2434;SDS011;1228;51.022;6.764;2023-07-30T09:07:43;8.20;;;3.47;;
2434;SDS011;1228;51.022;6.764;2023-07-30T09:10:09;4.93;;;3.10;;
2434;SDS011;1228;51.022;6.764;2023-07-30T09:12:36;5.83;;;3.00;;
2434;SDS011;1228;51.022;6.764;2023-07-30T09:15:02;5.63;;;3.17;;
2434;SDS011;1228;51.022;6.764;2023-07-30T09:17:31;9.40;;;3.73;;
2434;SDS011;1228;51.022;6.764;2023-07-30T09:19:59;7.73;;;3.40;;
2434;SDS011;1228;51.022;6.764;2023-07-30T09:22:32;3.97;;;3.00;;
2434;SDS011;1228;51.022;6.764;2023-07-30T09:25:01;6.90;;;3.53;;
2434;SDS011;1228;51.022;6.764;2023-07-30T09:27:28;8.17;;;3.30;;
2434;SDS011;1228;51.022;6.764;2023-07-30T09:29:58;3.40;;;3.00;;
2434;SDS011;1228;51.022;6.764;2023-07-30T09:32:25;4.70;;;3.03;;
2434;SDS011;1228;51.022;6.764;2023-07-30T09:34:52;4.93;;;2.90;;
2434;SDS011;1228;51.022;6.764;2023-07-30T09:37:18;8.30;;;2.65;;
2434;SDS011;1228;51.022;6.764;2023-07-30T09:39:43;5.38;;;2.70;;
2434;SDS011;1228;51.022;6.764;2023-07-30T09:42:12;7.25;;;3.80;;
2434;SDS011;1228;51.022;6.764;2023-07-30T09:44:38;5.60;;;3.47;;
2434;SDS011;1228;51.022;6.764;2023-07-30T09:47:04;4.90;;;2.97;;
2434;SDS011;1228;51.022;6.764;2023-07-30T09:49:34;4.22;;;3.55;;
2434;SDS011;1228;51.022;6.764;2023-07-30T09:52:02;5.75;;;2.88;;
2434;SDS011;1228;51.022;6.764;2023-07-30T09:54:28;4.43;;;2.95;;
2434;SDS011;1228;51.022;6.764;2023-07-30T09:56:55;4.03;;;2.40;;
2434;SDS011;1228;51.022;6.764;2023-07-30T09:59:21;6.05;;;2.80;;
2434;SDS011;1228;51.022;6.764;2023-07-30T10:01:48;5.15;;;3.00;;
2434;SDS011;1228;51.022;6.764;2023-07-30T10:04:14;4.78;;;2.92;;
2434;SDS011;1228;51.022;6.764;2023-07-30T10:06:55;4.07;;;3.10;;
2434;SDS011;1228;51.022;6.764;2023-07-30T10:09:34;4.25;;;2.60;;
2434;SDS011;1228;51.022;6.764;2023-07-30T10:12:08;7.00;;;3.17;;
2434;SDS011;1228;51.022;6.764;2023-07-30T10:14:49;5.07;;;3.00;;
2434;SDS011;1228;51.022;6.764;2023-07-30T10:17:17;3.85;;;3.22;;
2434;SDS011;1228;51.022;6.764;2023-07-30T10:19:47;10.57;;;9.85;;
2434;SDS011;1228;51.022;6.764;2023-07-30T10:24:55;5.25;;;2.88;;
2434;SDS011;1228;51.022;6.764;2023-07-30T10:27:40;7.53;;;4.07;;
2434;SDS011;1228;51.022;6.764;2023-07-30T10:30:12;6.38;;;4.35;;
2434;SDS011;1228;51.022;6.764;2023-07-30T10:32:42;8.57;;;5.43;;
2434;SDS011;1228;51.022;6.764;2023-07-30T10:38:15;4.50;;;3.60;;
2434;SDS011;1228;51.022;6.764;2023-07-30T10:40:42;6.82;;;2.78;;
2434;SDS011;1228;51.022;6.764;2023-07-30T10:43:26;6.63;;;2.75;;
2434;SDS011;1228;51.022;6.764;2023-07-30T10:45:53;6.20;;;3.58;;
2434;SDS011;1228;51.022;6.764;2023-07-30T10:48:18;4.60;;;3.75;;
2434;SDS011;1228;51.022;6.764;2023-07-30T10:50:55;4.50;;;3.60;;
2434;SDS011;1228;51.022;6.764;2023-07-30T10:53:20;4.70;;;2.55;;
2434;SDS011;1228;51.022;6.764;2023-07-30T10:55:46;2.90;;;2.60;;
2434;SDS011;1228;51.022;6.764;2023-07-30T10:58:13;6.18;;;5.78;;
2434;SDS011;1228;51.022;6.764;2023-07-30T11:00:41;3.63;;;2.35;;
2434;SDS011;1228;51.022;6.764;2023-07-30T11:03:07;4.75;;;4.43;;
2434;SDS011;1228;51.022;6.764;2023-07-30T11:05:32;3.53;;;2.20;;
2434;SDS011;1228;51.022;6.764;2023-07-30T11:07:58;2.33;;;2.13;;
2434;SDS011;1228;51.022;6.764;2023-07-30T11:10:24;5.80;;;2.70;;
2434;SDS011;1228;51.022;6.764;2023-07-30T11:12:49;5.22;;;2.72;;
2434;SDS011;1228;51.022;6.764;2023-07-30T11:15:16;4.28;;;2.90;;
2434;SDS011;1228;51.022;6.764;2023-07-30T11:17:42;4.88;;;3.40;;
2434;SDS011;1228;51.022;6.764;2023-07-30T11:20:21;5.25;;;3.70;;
2434;SDS011;1228;51.022;6.764;2023-07-30T11:22:53;3.30;;;3.00;;
2434;SDS011;1228;51.022;6.764;2023-07-30T11:25:19;4.57;;;2.72;;
2434;SDS011;1228;51.022;6.764;2023-07-30T11:27:48;2.85;;;2.22;;
2434;SDS011;1228;51.022;6.764;2023-07-30T11:30:16;2.97;;;2.55;;
2434;SDS011;1228;51.022;6.764;2023-07-30T11:32:42;5.15;;;2.60;;
2434;SDS011;1228;51.022;6.764;2023-07-30T11:35:11;3.78;;;2.58;;
2434;SDS011;1228;51.022;6.764;2023-07-30T11:37:40;6.18;;;2.78;;
2434;SDS011;1228;51.022;6.764;2023-07-30T11:40:12;3.65;;;3.00;;
2434;SDS011;1228;51.022;6.764;2023-07-30T11:42:38;5.22;;;2.63;;
2434;SDS011;1228;51.022;6.764;2023-07-30T11:45:22;5.63;;;2.50;;
2434;SDS011;1228;51.022;6.764;2023-07-30T11:47:48;4.93;;;2.42;;
2434;SDS011;1228;51.022;6.764;2023-07-30T11:50:14;4.28;;;2.30;;
2434;SDS011;1228;51.022;6.764;2023-07-30T11:52:52;2.83;;;2.50;;
2434;SDS011;1228;51.022;6.764;2023-07-30T11:55:20;6.05;;;2.83;;
2434;SDS011;1228;51.022;6.764;2023-07-30T11:57:46;4.55;;;3.03;;
2434;SDS011;1228;51.022;6.764;2023-07-30T12:00:12;4.57;;;3.20;;
2434;SDS011;1228;51.022;6.764;2023-07-30T12:02:38;3.13;;;2.75;;
2434;SDS011;1228;51.022;6.764;2023-07-30T12:05:04;6.05;;;3.00;;
2434;SDS011;1228;51.022;6.764;2023-07-30T12:07:32;4.37;;;2.67;;
2434;SDS011;1228;51.022;6.764;2023-07-30T12:10:10;2.77;;;2.30;;
2434;SDS011;1228;51.022;6.764;2023-07-30T12:12:44;5.33;;;3.87;;
2434;SDS011;1228;51.022;6.764;2023-07-30T12:15:11;5.83;;;3.13;;
2434;SDS011;1228;51.022;6.764;2023-07-30T12:17:39;5.03;;;2.87;;
2434;SDS011;1228;51.022;6.764;2023-07-30T12:20:05;2.70;;;2.50;;
2434;SDS011;1228;51.022;6.764;2023-07-30T12:22:34;3.03;;;2.73;;
2434;SDS011;1228;51.022;6.764;2023-07-30T12:25:01;4.80;;;2.83;;
2434;SDS011;1228;51.022;6.764;2023-07-30T12:27:30;3.67;;;2.70;;
2434;SDS011;1228;51.022;6.764;2023-07-30T12:29:56;6.97;;;3.20;;
2434;SDS011;1228;51.022;6.764;2023-07-30T12:32:22;5.37;;;2.60;;
2434;SDS011;1228;51.022;6.764;2023-07-30T12:34:47;6.00;;;3.00;;
2434;SDS011;1228;51.022;6.764;2023-07-30T12:37:13;2.90;;;2.63;;
2434;SDS011;1228;51.022;6.764;2023-07-30T12:39:39;3.73;;;2.70;;
2434;SDS011;1228;51.022;6.764;2023-07-30T12:42:04;4.07;;;2.77;;
2434;SDS011;1228;51.022;6.764;2023-07-30T12:44:30;3.00;;;2.80;;
2434;SDS011;1228;51.022;6.764;2023-07-30T12:46:55;6.80;;;2.60;;
2434;SDS011;1228;51.022;6.764;2023-07-30T12:49:21;6.00;;;3.03;;
2434;SDS011;1228;51.022;6.764;2023-07-30T12:51:47;4.75;;;3.75;;
2434;SDS011;1228;51.022;6.764;2023-07-30T12:54:13;3.78;;;2.80;;
2434;SDS011;1228;51.022;6.764;2023-07-30T12:56:38;7.57;;;3.75;;
2434;SDS011;1228;51.022;6.764;2023-07-30T12:59:04;5.07;;;3.20;;
2434;SDS011;1228;51.022;6.764;2023-07-30T13:01:29;3.90;;;2.72;;
2434;SDS011;1228;51.022;6.764;2023-07-30T13:03:55;4.95;;;2.83;;
2434;SDS011;1228;51.022;6.764;2023-07-30T13:06:21;4.05;;;2.67;;
2434;SDS011;1228;51.022;6.764;2023-07-30T13:08:46;3.55;;;2.83;;
2434;SDS011;1228;51.022;6.764;2023-07-30T13:11:12;4.10;;;2.93;;
2434;SDS011;1228;51.022;6.764;2023-07-30T13:13:38;4.37;;;2.70;;
2434;SDS011;1228;51.022;6.764;2023-07-30T13:16:04;5.60;;;3.23;;
2434;SDS011;1228;51.022;6.764;2023-07-30T13:18:29;3.33;;;3.10;;
2434;SDS011;1228;51.022;6.764;2023-07-30T13:20:55;11.10;;;3.50;;
2434;SDS011;1228;51.022;6.764;2023-07-30T13:23:21;6.03;;;2.78;;
2434;SDS011;1228;51.022;6.764;2023-07-30T13:25:46;4.07;;;2.70;;
2434;SDS011;1228;51.022;6.764;2023-07-30T13:28:12;2.60;;;2.40;;
2434;SDS011;1228;51.022;6.764;2023-07-30T13:30:38;6.53;;;2.70;;
2434;SDS011;1228;51.022;6.764;2023-07-30T13:33:03;5.53;;;2.30;;
2434;SDS011;1228;51.022;6.764;2023-07-30T13:35:29;5.88;;;2.40;;
2434;SDS011;1228;51.022;6.764;2023-07-30T13:37:54;5.22;;;2.55;;
2434;SDS011;1228;51.022;6.764;2023-07-30T13:40:20;3.38;;;2.60;;
2434;SDS011;1228;51.022;6.764;2023-07-30T13:42:45;2.53;;;2.33;;
2434;SDS011;1228;51.022;6.764;2023-07-30T13:45:11;6.32;;;2.75;;
2434;SDS011;1228;51.022;6.764;2023-07-30T13:47:37;3.70;;;2.40;;
2434;SDS011;1228;51.022;6.764;2023-07-30T13:50:02;6.22;;;2.55;;
2434;SDS011;1228;51.022;6.764;2023-07-30T13:52:28;7.30;;;2.92;;
2434;SDS011;1228;51.022;6.764;2023-07-30T13:54:54;4.25;;;3.25;;
2434;SDS011;1228;51.022;6.764;2023-07-30T13:57:22;8.90;;;2.88;;
2434;SDS011;1228;51.022;6.764;2023-07-30T13:59:49;3.50;;;2.67;;
2434;SDS011;1228;51.022;6.764;2023-07-30T14:02:16;3.28;;;2.90;;
2434;SDS011;1228;51.022;6.764;2023-07-30T14:04:41;4.15;;;2.42;;
2434;SDS011;1228;51.022;6.764;2023-07-30T14:07:07;3.88;;;2.78;;
2434;SDS011;1228;51.022;6.764;2023-07-30T14:09:32;5.75;;;2.72;;
2434;SDS011;1228;51.022;6.764;2023-07-30T14:12:01;5.00;;;2.97;;
2434;SDS011;1228;51.022;6.764;2023-07-30T14:14:27;4.43;;;2.55;;
2434;SDS011;1228;51.022;6.764;2023-07-30T14:16:53;4.72;;;3.55;;
2434;SDS011;1228;51.022;6.764;2023-07-30T14:19:19;7.55;;;3.53;;
2434;SDS011;1228;51.022;6.764;2023-07-30T14:21:45;5.00;;;2.80;;
2434;SDS011;1228;51.022;6.764;2023-07-30T14:24:10;3.15;;;2.70;;
2434;SDS011;1228;51.022;6.764;2023-07-30T14:26:36;3.47;;;3.10;;
2434;SDS011;1228;51.022;6.764;2023-07-30T14:29:02;3.70;;;2.72;;
2434;SDS011;1228;51.022;6.764;2023-07-30T14:31:28;2.95;;;2.55;;
2434;SDS011;1228;51.022;6.764;2023-07-30T14:33:53;3.95;;;3.08;;
2434;SDS011;1228;51.022;6.764;2023-07-30T14:36:19;4.13;;;3.53;;
2434;SDS011;1228;51.022;6.764;2023-07-30T14:38:44;3.85;;;2.65;;
2434;SDS011;1228;51.022;6.764;2023-07-30T14:41:10;4.45;;;2.70;;
2434;SDS011;1228;51.022;6.764;2023-07-30T14:43:36;3.20;;;2.85;;
2434;SDS011;1228;51.022;6.764;2023-07-30T14:46:02;3.53;;;3.17;;
2434;SDS011;1228;51.022;6.764;2023-07-30T14:48:28;5.30;;;3.50;;
2434;SDS011;1228;51.022;6.764;2023-07-30T14:50:54;5.28;;;2.72;;
2434;SDS011;1228;51.022;6.764;2023-07-30T14:53:19;4.57;;;3.42;;
2434;SDS011;1228;51.022;6.764;2023-07-30T14:55:45;5.25;;;3.20;;
2434;SDS011;1228;51.022;6.764;2023-07-30T14:58:11;4.53;;;4.13;;
2434;SDS011;1228;51.022;6.764;2023-07-30T15:00:36;5.22;;;2.97;;
2434;SDS011;1228;51.022;6.764;2023-07-30T15:03:02;4.20;;;3.03;;
2434;SDS011;1228;51.022;6.764;2023-07-30T15:05:29;4.43;;;2.70;;
2434;SDS011;1228;51.022;6.764;2023-07-30T15:07:55;4.03;;;3.15;;
2434;SDS011;1228;51.022;6.764;2023-07-30T15:10:21;6.20;;;2.80;;
2434;SDS011;1228;51.022;6.764;2023-07-30T15:12:47;4.55;;;2.38;;
2434;SDS011;1228;51.022;6.764;2023-07-30T15:15:12;5.43;;;2.20;;
2434;SDS011;1228;51.022;6.764;2023-07-30T15:17:38;3.30;;;2.40;;
2434;SDS011;1228;51.022;6.764;2023-07-30T15:20:04;3.30;;;2.33;;